createdAt,value
2016-11-08T00:01:49.825Z,0
2016-11-08T00:02:31.517Z,0
2016-11-08T00:05:02.574Z,0
2016-11-08T00:07:39.138Z,0
2016-11-08T00:08:20.783Z,0
2016-11-08T00:09:02.504Z,0
2016-11-08T00:11:44.048Z,0
2016-11-08T00:12:25.803Z,0
2016-11-08T00:13:07.437Z,0
2016-11-08T00:13:49.144Z,0
2016-11-08T00:14:30.796Z,0
2016-11-08T00:15:12.393Z,0
2016-11-08T00:15:54.057Z,0
2016-11-08T00:16:35.790Z,0
2016-11-08T00:17:17.593Z,0
2016-11-08T00:17:59.298Z,0
2016-11-08T00:18:40.986Z,0
2016-11-08T00:19:22.632Z,0
2016-11-08T00:20:04.156Z,0
2016-11-08T00:24:40.537Z,0
2016-11-08T00:25:22.312Z,0
2016-11-08T00:26:03.844Z,0
2016-11-08T00:26:45.615Z,0
2016-11-08T00:27:27.363Z,0
2016-11-08T00:28:09.065Z,0
2016-11-08T00:30:45.422Z,0
2016-11-08T00:31:27.093Z,0
2016-11-08T00:32:08.809Z,0
2016-11-08T00:32:50.538Z,0
2016-11-08T00:33:32.212Z,0
2016-11-08T00:36:03.284Z,0
2016-11-08T00:36:44.974Z,0
2016-11-08T00:37:26.777Z,0
2016-11-08T00:38:08.496Z,0
2016-11-08T00:38:50.174Z,0
2016-11-08T00:39:31.846Z,0
2016-11-08T00:40:13.616Z,0
2016-11-08T00:40:55.347Z,0
2016-11-08T00:41:36.951Z,0
2016-11-08T00:42:18.544Z,0
2016-11-08T00:46:28.651Z,0
2016-11-08T00:47:10.381Z,0
2016-11-08T00:51:46.811Z,0
2016-11-08T00:52:28.487Z,0
2016-11-08T00:53:10.197Z,0
2016-11-08T00:53:51.896Z,0
2016-11-08T00:54:33.519Z,0
2016-11-08T00:56:48.992Z,0
2016-11-08T00:57:30.558Z,0
2016-11-08T00:58:12.284Z,0
2016-11-08T01:00:43.267Z,0
2016-11-08T01:01:24.217Z,0
2016-11-08T01:02:05.413Z,0
2016-11-08T01:02:46.941Z,0
2016-11-08T01:03:28.556Z,0
2016-11-08T01:04:10.299Z,0
2016-11-08T01:04:51.496Z,0
2016-11-08T01:05:33.230Z,0
2016-11-08T01:06:14.837Z,0
2016-11-08T01:06:56.464Z,0
2016-11-08T01:07:38.188Z,0
2016-11-08T01:08:19.847Z,0
2016-11-08T01:09:01.481Z,0
2016-11-08T01:09:43.101Z,0
2016-11-08T01:10:25.665Z,0
2016-11-08T01:12:46.154Z,0
2016-11-08T01:15:01.447Z,0
2016-11-08T01:17:37.762Z,0
2016-11-08T01:20:19.461Z,0
2016-11-08T01:21:01.141Z,0
2016-11-08T01:21:42.756Z,0
2016-11-08T01:23:58.210Z,0
2016-11-08T01:24:39.912Z,0
2016-11-08T01:25:21.626Z,0
2016-11-08T01:26:03.321Z,0
2016-11-08T01:26:45.048Z,0
2016-11-08T01:27:26.793Z,0
2016-11-08T01:28:08.461Z,0
2016-11-08T01:28:50.146Z,0
2016-11-08T01:29:31.876Z,0
2016-11-08T01:30:13.578Z,0
2016-11-08T01:30:55.303Z,0
2016-11-08T01:31:36.964Z,0
2016-11-08T01:32:18.745Z,0
2016-11-08T01:33:00.317Z,0
2016-11-08T01:35:31.390Z,0
2016-11-08T01:38:07.865Z,0
2016-11-08T01:38:49.614Z,0
2016-11-08T01:41:20.759Z,0
2016-11-08T01:42:02.335Z,0
2016-11-08T01:44:33.328Z,0
2016-11-08T01:45:15.106Z,0
2016-11-08T01:45:56.840Z,0
2016-11-08T01:46:38.526Z,0
2016-11-08T01:47:20.118Z,0
2016-11-08T01:49:56.651Z,0
2016-11-08T01:50:38.356Z,0
2016-11-08T01:53:14.789Z,0
2016-11-08T01:53:56.510Z,0
2016-11-08T01:56:38.210Z,0
2016-11-08T01:57:19.929Z,0
2016-11-08T01:58:01.677Z,0
2016-11-08T01:58:43.287Z,0
2016-11-08T01:59:24.995Z,0
2016-11-08T02:01:56.117Z,0
2016-11-08T02:02:37.858Z,0
2016-11-08T02:03:19.444Z,0
2016-11-08T02:04:00.884Z,0
2016-11-08T02:04:41.397Z,0
2016-11-08T02:05:21.919Z,0
2016-11-08T02:06:02.428Z,0
2016-11-08T02:06:42.946Z,0
2016-11-08T02:07:23.456Z,0
2016-11-08T02:08:03.970Z,0
2016-11-08T02:08:44.499Z,0
2016-11-08T02:09:25.020Z,0
2016-11-08T02:10:05.545Z,0
2016-11-08T02:10:46.068Z,0
2016-11-08T02:11:26.563Z,0
2016-11-08T02:12:07.108Z,0
2016-11-08T02:12:47.621Z,0
2016-11-08T02:13:28.147Z,0
2016-11-08T02:14:08.659Z,0
2016-11-08T02:14:49.160Z,0
2016-11-08T02:15:29.666Z,0
2016-11-08T02:16:10.169Z,0
2016-11-08T02:16:50.679Z,0
2016-11-08T02:17:31.192Z,0
2016-11-08T02:18:11.680Z,0
2016-11-08T02:18:52.204Z,0
2016-11-08T02:19:32.709Z,0
2016-11-08T02:20:13.242Z,0
2016-11-08T02:20:53.788Z,0
2016-11-08T02:21:34.276Z,0
2016-11-08T02:22:14.779Z,0
2016-11-08T02:22:55.277Z,0
2016-11-08T02:23:35.793Z,0
2016-11-08T02:24:16.316Z,0
2016-11-08T02:24:56.845Z,0
2016-11-08T02:25:37.372Z,0
2016-11-08T02:26:17.909Z,0
2016-11-08T02:26:58.436Z,0
2016-11-08T02:27:38.985Z,0
2016-11-08T02:28:19.511Z,0
2016-11-08T02:29:00.012Z,0
2016-11-08T02:29:40.532Z,0
2016-11-08T02:30:21.053Z,0
2016-11-08T02:31:01.552Z,0
2016-11-08T02:31:42.082Z,0
2016-11-08T02:32:22.608Z,0
2016-11-08T02:33:03.120Z,0
2016-11-08T02:33:43.639Z,0
2016-11-08T02:34:24.166Z,0
2016-11-08T02:35:04.666Z,0
2016-11-08T02:35:45.180Z,0
2016-11-08T02:36:25.711Z,0
2016-11-08T02:37:06.246Z,0
2016-11-08T02:37:46.764Z,0
2016-11-08T02:38:27.294Z,0
2016-11-08T02:39:07.818Z,0
2016-11-08T02:39:48.332Z,0
2016-11-08T02:40:28.853Z,0
2016-11-08T02:41:09.384Z,0
2016-11-08T02:41:49.909Z,0
2016-11-08T02:42:30.422Z,0
2016-11-08T02:43:10.936Z,0
2016-11-08T02:43:51.451Z,0
2016-11-08T02:44:31.975Z,0
2016-11-08T02:45:12.491Z,0
2016-11-08T02:45:53.000Z,0
2016-11-08T02:46:33.500Z,0
2016-11-08T02:47:13.991Z,0
2016-11-08T02:47:54.515Z,0
2016-11-08T02:48:35.025Z,0
2016-11-08T02:49:15.530Z,0
2016-11-08T02:49:56.033Z,0
2016-11-08T02:50:36.543Z,0
2016-11-08T02:51:17.056Z,0
2016-11-08T02:51:57.582Z,0
2016-11-08T02:52:38.092Z,0
2016-11-08T02:53:18.595Z,0
2016-11-08T02:53:59.136Z,0
2016-11-08T02:54:39.673Z,0
2016-11-08T02:55:20.187Z,0
2016-11-08T02:56:00.684Z,0
2016-11-08T02:56:41.208Z,0
2016-11-08T02:57:21.753Z,0
2016-11-08T02:58:02.265Z,0
2016-11-08T02:58:42.806Z,0
2016-11-08T02:59:23.311Z,0
2016-11-08T03:00:03.825Z,0
2016-11-08T03:00:44.321Z,0
2016-11-08T03:01:24.841Z,0
2016-11-08T03:02:05.362Z,0
2016-11-08T03:02:45.878Z,0
2016-11-08T03:03:26.383Z,0
2016-11-08T03:04:06.884Z,0
2016-11-08T03:04:47.394Z,0
2016-11-08T03:05:27.913Z,0
2016-11-08T03:06:08.427Z,0
2016-11-08T03:06:48.935Z,0
2016-11-08T03:07:29.418Z,0
2016-11-08T03:08:09.943Z,0
2016-11-08T03:08:50.458Z,0
2016-11-08T03:09:30.961Z,0
2016-11-08T03:10:11.482Z,0
2016-11-08T03:10:51.967Z,0
2016-11-08T03:11:32.507Z,0
2016-11-08T03:12:13.028Z,0
2016-11-08T03:12:53.530Z,0
2016-11-08T03:13:34.038Z,0
2016-11-08T03:14:14.538Z,0
2016-11-08T03:14:55.061Z,0
2016-11-08T03:15:35.574Z,0
2016-11-08T03:16:16.090Z,0
2016-11-08T03:16:56.614Z,0
2016-11-08T03:17:37.122Z,0
2016-11-08T03:18:17.662Z,0
2016-11-08T03:18:58.166Z,0
2016-11-08T03:19:38.693Z,0
2016-11-08T03:20:19.210Z,0
2016-11-08T03:20:59.721Z,0
2016-11-08T03:21:40.260Z,0
2016-11-08T03:22:20.757Z,0
2016-11-08T03:23:01.295Z,0
2016-11-08T03:23:41.810Z,0
2016-11-08T03:24:22.333Z,0
2016-11-08T03:25:02.871Z,0
2016-11-08T03:25:43.388Z,0
2016-11-08T03:26:23.918Z,0
2016-11-08T03:27:04.424Z,0
2016-11-08T03:27:44.958Z,0
2016-11-08T03:28:25.496Z,0
2016-11-08T03:29:06.050Z,0
2016-11-08T03:29:46.560Z,0
2016-11-08T03:30:27.083Z,0
2016-11-08T03:31:07.598Z,0
2016-11-08T03:31:48.143Z,0
2016-11-08T03:32:28.655Z,0
2016-11-08T03:33:09.192Z,0
2016-11-08T03:33:49.727Z,0
2016-11-08T03:34:30.239Z,0
2016-11-08T03:35:10.765Z,0
2016-11-08T03:35:51.316Z,0
2016-11-08T03:36:31.814Z,0
2016-11-08T03:37:12.324Z,0
2016-11-08T03:37:52.840Z,0
2016-11-08T03:38:33.362Z,0
2016-11-08T03:39:13.869Z,0
2016-11-08T03:39:54.404Z,0
2016-11-08T03:40:34.912Z,0
2016-11-08T03:41:15.431Z,0
2016-11-08T03:41:55.966Z,0
2016-11-08T03:42:36.450Z,0
2016-11-08T03:43:16.973Z,0
2016-11-08T03:43:57.463Z,0
2016-11-08T03:44:37.963Z,0
2016-11-08T03:45:18.475Z,0
2016-11-08T03:45:58.965Z,0
2016-11-08T03:46:39.455Z,0
2016-11-08T03:47:19.985Z,0
2016-11-08T03:48:00.468Z,0
2016-11-08T03:48:40.989Z,0
2016-11-08T03:49:21.517Z,0
2016-11-08T03:50:02.026Z,0
2016-11-08T03:50:42.531Z,0
2016-11-08T03:51:23.063Z,0
2016-11-08T03:52:03.570Z,0
2016-11-08T03:52:44.095Z,0
2016-11-08T03:53:24.615Z,0
2016-11-08T03:54:05.132Z,0
2016-11-08T03:54:45.674Z,0
2016-11-08T03:55:26.216Z,0
2016-11-08T03:56:06.737Z,0
2016-11-08T03:56:47.272Z,0
2016-11-08T03:57:27.852Z,0
2016-11-08T03:58:08.377Z,0
2016-11-08T03:58:48.896Z,0
2016-11-08T03:59:29.427Z,0
2016-11-08T04:00:09.956Z,0
2016-11-08T04:00:50.498Z,0
2016-11-08T04:01:31.010Z,0
2016-11-08T04:02:11.537Z,0
2016-11-08T04:02:52.060Z,0
2016-11-08T04:03:32.577Z,0
2016-11-08T04:04:13.071Z,0
2016-11-08T04:04:53.588Z,0
2016-11-08T04:05:34.129Z,0
2016-11-08T04:06:14.645Z,0
2016-11-08T04:06:55.169Z,0
2016-11-08T04:07:35.697Z,0
2016-11-08T04:08:16.204Z,0
2016-11-08T04:08:56.719Z,0
2016-11-08T04:09:37.225Z,0
2016-11-08T04:10:17.751Z,0
2016-11-08T04:10:58.274Z,0
2016-11-08T04:11:38.793Z,0
2016-11-08T04:12:19.309Z,0
2016-11-08T04:12:59.831Z,0
2016-11-08T04:13:40.334Z,0
2016-11-08T04:14:20.852Z,0
2016-11-08T04:15:01.369Z,0
2016-11-08T04:15:41.888Z,0
2016-11-08T04:16:22.430Z,0
2016-11-08T04:17:02.919Z,0
2016-11-08T04:17:43.421Z,0
2016-11-08T04:18:23.939Z,0
2016-11-08T04:19:04.514Z,0
2016-11-08T04:19:45.010Z,0
2016-11-08T04:20:25.521Z,0
2016-11-08T04:21:06.026Z,0
2016-11-08T04:21:46.547Z,0
2016-11-08T04:22:27.089Z,0
2016-11-08T04:23:07.621Z,0
2016-11-08T04:23:48.138Z,0
2016-11-08T04:24:28.621Z,0
2016-11-08T04:25:09.128Z,0
2016-11-08T04:25:49.671Z,0
2016-11-08T04:26:30.203Z,0
2016-11-08T04:27:10.726Z,0
2016-11-08T04:27:51.253Z,0
2016-11-08T04:28:31.771Z,0
2016-11-08T04:29:12.299Z,0
2016-11-08T04:29:52.822Z,0
2016-11-08T04:30:33.336Z,0
2016-11-08T04:31:13.892Z,0
2016-11-08T04:31:54.399Z,0
2016-11-08T04:32:34.932Z,0
2016-11-08T04:33:15.454Z,0
2016-11-08T04:33:55.982Z,0
2016-11-08T04:34:36.497Z,0
2016-11-08T04:35:17.023Z,0
2016-11-08T04:35:57.661Z,0
2016-11-08T04:36:38.156Z,0
2016-11-08T04:37:18.670Z,0
2016-11-08T04:37:59.179Z,0
2016-11-08T04:38:39.705Z,0
2016-11-08T04:39:20.229Z,0
2016-11-08T04:40:00.735Z,0
2016-11-08T04:40:41.240Z,0
2016-11-08T04:41:21.759Z,0
2016-11-08T04:42:02.280Z,0
2016-11-08T04:42:42.806Z,0
2016-11-08T04:43:23.333Z,0
2016-11-08T04:44:03.848Z,0
2016-11-08T04:44:44.392Z,0
2016-11-08T04:45:24.896Z,0
2016-11-08T04:46:05.400Z,0
2016-11-08T04:46:45.917Z,0
2016-11-08T04:47:26.531Z,0
2016-11-08T04:48:07.024Z,0
2016-11-08T04:48:47.555Z,0
2016-11-08T04:49:28.036Z,0
2016-11-08T04:50:08.575Z,0
2016-11-08T04:50:49.118Z,0
2016-11-08T04:51:29.644Z,0
2016-11-08T04:52:10.163Z,0
2016-11-08T04:52:50.690Z,0
2016-11-08T04:53:31.216Z,0
2016-11-08T04:54:11.753Z,0
2016-11-08T04:54:52.275Z,0
2016-11-08T04:55:32.804Z,0
2016-11-08T04:56:13.321Z,0
2016-11-08T04:56:53.864Z,0
2016-11-08T04:57:34.400Z,0
2016-11-08T04:58:14.940Z,0
2016-11-08T04:58:55.450Z,0
2016-11-08T04:59:35.975Z,0
2016-11-08T05:00:16.536Z,0
2016-11-08T05:00:57.065Z,0
2016-11-08T05:01:37.610Z,0
2016-11-08T05:02:18.130Z,0
2016-11-08T05:02:58.651Z,0
2016-11-08T05:03:39.179Z,0
2016-11-08T05:04:19.718Z,0
2016-11-08T05:05:00.220Z,0
2016-11-08T05:05:40.722Z,0
2016-11-08T05:06:21.239Z,0
2016-11-08T05:07:01.745Z,0
2016-11-08T05:07:42.277Z,0
2016-11-08T05:08:22.807Z,0
2016-11-08T05:09:03.317Z,0
2016-11-08T05:09:43.847Z,0
2016-11-08T05:10:24.378Z,0
2016-11-08T05:11:04.912Z,0
2016-11-08T05:11:45.433Z,0
2016-11-08T05:12:25.947Z,0
2016-11-08T05:13:06.458Z,0
2016-11-08T05:13:46.998Z,0
2016-11-08T05:14:27.531Z,0
2016-11-08T05:15:08.063Z,0
2016-11-08T05:15:48.600Z,0
2016-11-08T05:16:29.119Z,0
2016-11-08T05:17:09.627Z,0
2016-11-08T05:17:50.129Z,0
2016-11-08T05:18:30.646Z,0
2016-11-08T05:19:11.150Z,0
2016-11-08T05:19:51.675Z,0
2016-11-08T05:20:32.299Z,0
2016-11-08T05:21:12.836Z,0
2016-11-08T05:21:53.342Z,0
2016-11-08T05:22:33.871Z,0
2016-11-08T05:23:14.401Z,0
2016-11-08T05:23:54.910Z,0
2016-11-08T05:24:35.463Z,0
2016-11-08T05:25:15.957Z,0
2016-11-08T05:25:56.455Z,0
2016-11-08T05:26:36.974Z,0
2016-11-08T05:27:17.509Z,0
2016-11-08T05:27:58.030Z,0
2016-11-08T05:28:38.549Z,0
2016-11-08T05:29:19.079Z,0
2016-11-08T05:29:59.594Z,0
2016-11-08T05:30:40.099Z,0
2016-11-08T05:31:20.616Z,0
2016-11-08T05:32:01.149Z,0
2016-11-08T05:32:41.674Z,0
2016-11-08T05:33:22.203Z,0
2016-11-08T05:34:02.717Z,0
2016-11-08T05:34:43.235Z,0
2016-11-08T05:35:23.753Z,0
2016-11-08T05:36:04.274Z,0
2016-11-08T05:36:44.788Z,0
2016-11-08T05:37:25.312Z,0
2016-11-08T05:38:05.845Z,0
2016-11-08T05:38:46.353Z,0
2016-11-08T05:39:26.892Z,0
2016-11-08T05:40:07.416Z,0
2016-11-08T05:40:47.925Z,0
2016-11-08T05:41:28.440Z,245
2016-11-08T05:42:08.968Z,0
2016-11-08T05:42:49.507Z,0
2016-11-08T05:43:30.041Z,0
2016-11-08T05:44:10.592Z,0
2016-11-08T05:47:05.361Z,0
2016-11-08T05:47:45.953Z,0
2016-11-08T05:48:26.484Z,0
2016-11-08T05:49:07.002Z,0
2016-11-08T05:49:47.549Z,0
2016-11-08T05:50:28.072Z,0
2016-11-08T05:51:08.600Z,0
2016-11-08T05:51:49.130Z,0
2016-11-08T05:52:29.657Z,0
2016-11-08T05:53:10.193Z,0
2016-11-08T05:53:50.732Z,0
2016-11-08T05:54:31.248Z,0
2016-11-08T05:55:11.796Z,0
2016-11-08T05:55:52.321Z,0
2016-11-08T05:56:32.860Z,0
2016-11-08T05:57:13.384Z,0
2016-11-08T05:57:53.906Z,0
2016-11-08T05:58:34.445Z,0
2016-11-08T05:59:14.982Z,0
2016-11-08T05:59:55.508Z,0
2016-11-08T06:00:36.027Z,0
2016-11-08T06:01:16.551Z,0
2016-11-08T06:01:57.075Z,0
2016-11-08T06:02:37.610Z,0
2016-11-08T06:03:18.129Z,0
2016-11-08T06:03:58.662Z,0
2016-11-08T06:04:39.164Z,0
2016-11-08T06:05:19.667Z,0
2016-11-08T06:06:00.173Z,0
2016-11-08T06:06:40.681Z,0
2016-11-08T06:07:21.200Z,0
2016-11-08T06:08:01.726Z,0
2016-11-08T06:08:42.269Z,0
2016-11-08T06:09:22.791Z,0
2016-11-08T06:10:03.313Z,0
2016-11-08T06:10:43.821Z,0
2016-11-08T06:11:24.357Z,0
2016-11-08T06:12:04.917Z,0
2016-11-08T06:12:45.436Z,0
2016-11-08T06:13:25.944Z,0
2016-11-08T06:14:06.501Z,0
2016-11-08T06:14:47.016Z,0
2016-11-08T06:15:27.540Z,0
2016-11-08T06:16:08.080Z,0
2016-11-08T06:16:48.586Z,0
2016-11-08T06:17:29.103Z,0
2016-11-08T06:18:09.656Z,0
2016-11-08T06:18:50.180Z,0
2016-11-08T06:19:30.705Z,0
2016-11-08T06:20:11.213Z,0
2016-11-08T06:20:51.770Z,0
2016-11-08T06:21:32.270Z,0
2016-11-08T06:22:12.789Z,0
2016-11-08T06:22:53.312Z,0
2016-11-08T06:23:33.837Z,0
2016-11-08T06:24:14.366Z,0
2016-11-08T06:24:54.900Z,0
2016-11-08T06:25:35.426Z,0
2016-11-08T06:26:15.943Z,0
2016-11-08T06:26:56.461Z,0
2016-11-08T06:27:37.007Z,0
2016-11-08T06:28:17.514Z,0
2016-11-08T06:28:58.028Z,0
2016-11-08T06:29:38.555Z,0
2016-11-08T06:30:19.087Z,0
2016-11-08T06:30:59.618Z,0
2016-11-08T06:31:40.149Z,0
2016-11-08T06:32:20.682Z,0
2016-11-08T06:33:01.207Z,0
2016-11-08T06:33:41.751Z,0
2016-11-08T06:34:22.278Z,0
2016-11-08T06:35:02.820Z,0
2016-11-08T06:35:43.335Z,0
2016-11-08T06:36:23.868Z,0
2016-11-08T06:37:04.398Z,0
2016-11-08T06:37:44.921Z,0
2016-11-08T06:38:25.442Z,0
2016-11-08T06:39:05.956Z,0
2016-11-08T06:39:50.067Z,0
2016-11-08T06:40:31.639Z,0
2016-11-08T06:41:12.227Z,0
2016-11-08T06:41:52.771Z,0
2016-11-08T06:42:33.294Z,0
2016-11-08T06:43:13.806Z,0
2016-11-08T06:43:54.322Z,0
2016-11-08T06:44:34.857Z,0
2016-11-08T06:45:15.368Z,0
2016-11-08T06:45:55.906Z,0
2016-11-08T06:46:36.418Z,0
2016-11-08T06:47:16.956Z,0
2016-11-08T06:47:57.491Z,0
2016-11-08T06:48:38.008Z,0
2016-11-08T06:49:18.523Z,0
2016-11-08T06:49:59.054Z,0
2016-11-08T06:50:39.584Z,0
2016-11-08T06:51:20.114Z,0
2016-11-08T06:52:00.643Z,0
2016-11-08T06:52:41.169Z,0
2016-11-08T06:53:21.692Z,0
2016-11-08T06:54:02.221Z,0
2016-11-08T06:54:42.743Z,0
2016-11-08T06:55:23.278Z,0
2016-11-08T06:56:03.816Z,0
2016-11-08T06:56:44.360Z,0
2016-11-08T06:57:24.894Z,0
2016-11-08T06:58:05.408Z,0
2016-11-08T06:58:45.926Z,0
2016-11-08T06:59:26.461Z,0
2016-11-08T07:00:06.991Z,0
2016-11-08T07:00:47.522Z,0
2016-11-08T07:01:28.038Z,0
2016-11-08T07:02:08.576Z,0
2016-11-08T07:02:49.114Z,0
2016-11-08T07:03:29.648Z,0
2016-11-08T07:04:10.168Z,0
2016-11-08T07:04:50.696Z,0
2016-11-08T07:05:31.225Z,0
2016-11-08T07:06:11.755Z,0
2016-11-08T07:06:52.291Z,0
2016-11-08T07:07:32.808Z,5
2016-11-08T07:08:13.341Z,5
2016-11-08T07:08:53.886Z,5
2016-11-08T07:09:34.420Z,5
2016-11-08T07:10:14.935Z,5
2016-11-08T07:10:55.467Z,5
2016-11-08T07:11:35.989Z,5
2016-11-08T07:12:16.529Z,5
2016-11-08T07:12:57.065Z,5
2016-11-08T07:13:37.613Z,5
2016-11-08T07:14:18.117Z,5
2016-11-08T07:14:58.642Z,5
2016-11-08T07:15:39.185Z,5
2016-11-08T07:16:19.720Z,5
2016-11-08T07:17:00.254Z,5
2016-11-08T07:17:40.779Z,5
2016-11-08T07:18:21.287Z,5
2016-11-08T07:19:01.827Z,5
2016-11-08T07:19:42.399Z,5
2016-11-08T07:20:24.699Z,5
2016-11-08T07:21:05.227Z,5
2016-11-08T07:21:45.766Z,5
2016-11-08T07:22:26.284Z,5
2016-11-08T07:23:06.849Z,5
2016-11-08T07:23:47.351Z,5
2016-11-08T07:24:27.972Z,5
2016-11-08T07:25:08.691Z,5
2016-11-08T07:25:49.084Z,5
2016-11-08T07:26:29.617Z,5
2016-11-08T07:27:10.209Z,5
2016-11-08T07:27:50.758Z,5
2016-11-08T07:28:31.294Z,5
2016-11-08T07:29:11.839Z,10
2016-11-08T07:29:52.373Z,10
2016-11-08T07:30:32.916Z,10
2016-11-08T07:31:13.435Z,10
2016-11-08T07:31:53.979Z,10
2016-11-08T07:32:34.501Z,15
2016-11-08T07:33:15.032Z,15
2016-11-08T07:33:55.559Z,20
2016-11-08T07:34:36.080Z,20
2016-11-08T07:35:16.622Z,20
2016-11-08T07:35:57.145Z,20
2016-11-08T07:36:37.687Z,15
2016-11-08T07:37:18.235Z,15
2016-11-08T07:37:58.767Z,10
2016-11-08T07:38:39.301Z,10
2016-11-08T07:39:19.821Z,10
2016-11-08T07:40:00.334Z,10
2016-11-08T07:40:40.885Z,10
2016-11-08T07:41:21.434Z,10
2016-11-08T07:42:01.967Z,10
2016-11-08T07:42:42.480Z,10
2016-11-08T07:43:23.009Z,15
2016-11-08T07:44:03.554Z,15
2016-11-08T07:44:44.068Z,15
2016-11-08T07:45:24.595Z,20
2016-11-08T07:46:05.155Z,25
2016-11-08T07:46:45.649Z,25
2016-11-08T07:47:26.170Z,25
2016-11-08T07:48:06.685Z,25
2016-11-08T07:48:47.226Z,25
2016-11-08T07:49:27.758Z,25
2016-11-08T07:50:08.296Z,20
2016-11-08T07:50:48.832Z,20
2016-11-08T07:51:29.364Z,25
2016-11-08T07:52:09.892Z,30
2016-11-08T07:52:50.413Z,30
2016-11-08T07:53:30.943Z,30
2016-11-08T07:54:11.468Z,30
2016-11-08T07:54:52.079Z,30
2016-11-08T07:55:32.598Z,25
2016-11-08T07:56:13.139Z,25
2016-11-08T07:56:53.669Z,25
2016-11-08T07:57:34.248Z,25
2016-11-08T07:58:14.793Z,20
2016-11-08T07:58:55.323Z,20
2016-11-08T07:59:35.846Z,20
2016-11-08T08:00:16.372Z,25
2016-11-08T08:00:56.910Z,25
2016-11-08T08:01:37.433Z,25
2016-11-08T08:02:17.943Z,30
2016-11-08T08:02:58.470Z,30
2016-11-08T08:03:39.002Z,30
2016-11-08T08:04:19.579Z,35
2016-11-08T08:05:00.111Z,35
2016-11-08T08:05:40.626Z,35
2016-11-08T08:06:21.144Z,30
2016-11-08T08:07:01.673Z,30
2016-11-08T08:07:42.196Z,35
2016-11-08T08:08:22.728Z,35
2016-11-08T08:09:03.255Z,35
2016-11-08T08:09:43.784Z,40
2016-11-08T08:10:24.359Z,40
2016-11-08T08:11:04.874Z,35
2016-11-08T08:11:45.416Z,35
2016-11-08T08:12:25.936Z,40
2016-11-08T08:13:06.535Z,45
2016-11-08T08:13:47.122Z,50
2016-11-08T08:14:27.655Z,60
2016-11-08T08:15:08.180Z,65
2016-11-08T08:15:48.705Z,75
2016-11-08T08:16:29.239Z,85
2016-11-08T08:17:09.784Z,95
2016-11-08T08:17:50.305Z,100
2016-11-08T08:18:30.832Z,105
2016-11-08T08:19:11.360Z,105
2016-11-08T08:19:51.903Z,105
2016-11-08T08:20:32.417Z,100
2016-11-08T08:21:12.936Z,100
2016-11-08T08:21:53.443Z,100
2016-11-08T08:22:33.998Z,95
2016-11-08T08:23:14.498Z,90
2016-11-08T08:23:55.029Z,85
2016-11-08T08:24:35.562Z,80
2016-11-08T08:25:16.092Z,75
2016-11-08T08:25:56.625Z,75
2016-11-08T08:26:37.138Z,70
2016-11-08T08:27:17.667Z,65
2016-11-08T08:27:58.190Z,60
2016-11-08T08:28:38.706Z,60
2016-11-08T08:29:19.239Z,50
2016-11-08T08:29:59.769Z,40
2016-11-08T08:30:40.293Z,35
2016-11-08T08:31:20.819Z,25
2016-11-08T08:32:01.349Z,20
2016-11-08T08:32:41.864Z,15
2016-11-08T08:33:22.402Z,15
2016-11-08T08:34:02.943Z,15
2016-11-08T08:34:43.473Z,20
2016-11-08T08:35:24.008Z,25
2016-11-08T08:36:04.541Z,35
2016-11-08T08:36:45.078Z,50
2016-11-08T08:37:25.604Z,70
2016-11-08T08:38:06.121Z,90
2016-11-08T08:38:46.660Z,105
2016-11-08T08:39:27.181Z,115
2016-11-08T08:40:07.729Z,120
2016-11-08T08:40:48.291Z,120
2016-11-08T08:41:28.810Z,120
2016-11-08T08:42:09.348Z,125
2016-11-08T08:42:49.876Z,130
2016-11-08T08:43:30.405Z,135
2016-11-08T08:44:10.908Z,135
2016-11-08T08:44:51.455Z,135
2016-11-08T08:45:31.977Z,130
2016-11-08T08:46:18.914Z,120
2016-11-08T08:46:59.450Z,125
2016-11-08T08:47:39.978Z,130
2016-11-08T08:48:20.495Z,130
2016-11-08T08:49:01.021Z,130
2016-11-08T08:49:41.565Z,130
2016-11-08T08:50:22.074Z,130
2016-11-08T08:51:02.598Z,135
2016-11-08T08:51:43.140Z,130
2016-11-08T08:52:23.675Z,120
2016-11-08T08:53:04.213Z,95
2016-11-08T08:53:44.705Z,70
2016-11-08T08:54:25.245Z,65
2016-11-08T08:55:05.779Z,65
2016-11-08T08:55:46.310Z,70
2016-11-08T08:56:26.861Z,80
2016-11-08T08:57:07.397Z,85
2016-11-08T08:57:47.937Z,85
2016-11-08T08:58:28.460Z,75
2016-11-08T08:59:08.986Z,75
2016-11-08T08:59:49.515Z,65
2016-11-08T09:00:30.078Z,65
2016-11-08T09:01:10.606Z,75
2016-11-08T09:01:51.135Z,75
2016-11-08T09:02:31.653Z,85
2016-11-08T09:03:12.202Z,75
2016-11-08T09:03:52.739Z,75
2016-11-08T09:04:33.282Z,80
2016-11-08T09:05:13.815Z,90
2016-11-08T09:05:54.349Z,95
2016-11-08T09:06:34.867Z,90
2016-11-08T09:07:15.404Z,85
2016-11-08T09:07:55.921Z,90
2016-11-08T09:08:36.426Z,85
2016-11-08T09:09:16.961Z,95
2016-11-08T09:09:57.517Z,110
2016-11-08T09:10:38.051Z,105
2016-11-08T09:11:18.567Z,80
2016-11-08T09:11:59.091Z,65
2016-11-08T09:12:39.610Z,60
2016-11-08T09:13:20.126Z,70
2016-11-08T09:14:00.662Z,85
2016-11-08T09:14:41.183Z,90
2016-11-08T09:15:21.709Z,100
2016-11-08T09:16:02.249Z,105
2016-11-08T09:16:42.780Z,115
2016-11-08T09:17:23.291Z,115
2016-11-08T09:18:03.813Z,115
2016-11-08T09:18:44.337Z,125
2016-11-08T09:19:24.877Z,130
2016-11-08T09:20:05.418Z,140
2016-11-08T09:20:45.942Z,140
2016-11-08T09:21:26.461Z,135
2016-11-08T09:22:06.992Z,140
2016-11-08T09:22:47.522Z,145
2016-11-08T09:23:28.050Z,135
2016-11-08T09:24:08.582Z,115
2016-11-08T09:24:49.115Z,90
2016-11-08T09:25:29.647Z,80
2016-11-08T09:26:10.175Z,85
2016-11-08T09:26:50.720Z,105
2016-11-08T09:27:31.256Z,110
2016-11-08T09:28:11.786Z,100
2016-11-08T09:28:52.308Z,95
2016-11-08T09:29:32.841Z,95
2016-11-08T09:30:13.375Z,85
2016-11-08T09:30:53.909Z,90
2016-11-08T09:31:34.422Z,110
2016-11-08T09:32:14.934Z,110
2016-11-08T09:32:55.485Z,110
2016-11-08T09:33:36.011Z,120
2016-11-08T09:34:16.543Z,125
2016-11-08T09:34:57.095Z,130
2016-11-08T09:35:37.606Z,145
2016-11-08T09:36:18.134Z,120
2016-11-08T09:36:58.680Z,125
2016-11-08T09:37:39.268Z,130
2016-11-08T09:38:19.777Z,140
2016-11-08T09:39:00.305Z,140
2016-11-08T09:39:40.823Z,120
2016-11-08T09:40:21.351Z,100
2016-11-08T09:41:01.901Z,95
2016-11-08T09:41:42.437Z,90
2016-11-08T09:42:22.960Z,80
2016-11-08T09:43:03.484Z,70
2016-11-08T09:43:44.007Z,65
2016-11-08T09:44:24.544Z,60
2016-11-08T09:45:05.078Z,55
2016-11-08T09:45:45.607Z,50
2016-11-08T09:46:26.138Z,50
2016-11-08T09:47:06.666Z,50
2016-11-08T09:47:47.209Z,50
2016-11-08T09:48:27.731Z,55
2016-11-08T09:49:08.260Z,55
2016-11-08T09:49:48.777Z,50
2016-11-08T09:50:29.308Z,45
2016-11-08T09:51:09.844Z,50
2016-11-08T09:51:50.388Z,45
2016-11-08T09:52:30.933Z,35
2016-11-08T09:53:11.468Z,35
2016-11-08T09:53:51.990Z,45
2016-11-08T09:54:32.519Z,55
2016-11-08T09:55:13.054Z,65
2016-11-08T09:55:53.577Z,75
2016-11-08T09:56:34.082Z,75
2016-11-08T09:57:14.618Z,65
2016-11-08T09:57:55.137Z,60
2016-11-08T09:58:35.685Z,55
2016-11-08T09:59:16.199Z,55
2016-11-08T09:59:56.733Z,65
2016-11-08T10:00:37.283Z,80
2016-11-08T10:01:17.819Z,80
2016-11-08T10:01:58.448Z,75
2016-11-08T10:02:39.101Z,75
2016-11-08T10:03:19.621Z,90
2016-11-08T10:04:00.158Z,110
2016-11-08T10:04:40.694Z,110
2016-11-08T10:05:21.225Z,115
2016-11-08T10:06:01.793Z,125
2016-11-08T10:06:42.329Z,130
2016-11-08T10:07:22.857Z,125
2016-11-08T10:08:03.398Z,125
2016-11-08T10:08:43.919Z,135
2016-11-08T10:09:24.441Z,150
2016-11-08T10:10:04.980Z,150
2016-11-08T10:10:45.529Z,145
2016-11-08T10:11:26.095Z,135
2016-11-08T10:12:06.601Z,135
2016-11-08T10:12:47.136Z,135
2016-11-08T10:13:27.651Z,140
2016-11-08T10:14:08.180Z,150
2016-11-08T10:14:48.702Z,150
2016-11-08T10:15:29.230Z,140
2016-11-08T10:16:09.750Z,140
2016-11-08T10:16:50.285Z,140
2016-11-08T10:17:30.827Z,140
2016-11-08T10:18:11.359Z,140
2016-11-08T10:18:51.873Z,140
2016-11-08T10:19:32.407Z,155
2016-11-08T10:20:12.942Z,160
2016-11-08T10:20:53.474Z,165
2016-11-08T10:21:34.004Z,155
2016-11-08T10:22:14.523Z,155
2016-11-08T10:22:55.041Z,135
2016-11-08T10:23:35.588Z,135
2016-11-08T10:24:16.133Z,150
2016-11-08T10:24:56.643Z,150
2016-11-08T10:25:37.159Z,155
2016-11-08T10:26:17.686Z,170
2016-11-08T10:26:58.227Z,205
2016-11-08T10:27:38.741Z,245
2016-11-08T10:28:19.269Z,260
2016-11-08T10:28:59.799Z,250
2016-11-08T10:29:40.334Z,270
2016-11-08T10:30:20.856Z,300
2016-11-08T10:31:01.379Z,270
2016-11-08T10:31:41.902Z,285
2016-11-08T10:32:22.429Z,285
2016-11-08T10:33:02.956Z,240
2016-11-08T10:33:43.478Z,270
2016-11-08T10:34:24.018Z,360
2016-11-08T10:35:04.538Z,465
2016-11-08T10:35:45.071Z,225
2016-11-08T10:36:25.603Z,215
2016-11-08T10:37:06.128Z,460
2016-11-08T10:37:46.639Z,295
2016-11-08T10:38:27.162Z,340
2016-11-08T10:39:07.706Z,295
2016-11-08T10:39:48.230Z,275
2016-11-08T10:40:28.758Z,255
2016-11-08T10:41:09.296Z,410
2016-11-08T10:41:49.822Z,230
2016-11-08T10:42:30.367Z,205
2016-11-08T10:43:10.899Z,210